PATA/TAL METAR and TAF weather

Enter ICAO airport designator
Station Type Date Time Source
PATA METAR 2019/06/17 14:52 UTC NOAA

PATA 171452Z 00000KT 10SM BKN140 12/06 A2959 RMK AO2 SLP021 T01220061 58009


Station Type Date Time Source
PATA Decoded METAR 2019/06/17 14:52 UTC NOAA

TANANA CALHOUN MEMORIAL AIRPORT , AK, United States (PATA) 65-10N 152-06W 67M
Jun 17, 2019 - 10:52 AM EDT / 2019.06.17 1452 UTC
Wind: Calm:0
Visibility: 10 mile(s):0
Sky conditions: mostly cloudy
Temperature: 54.0 F (12.2 C)
Dew Point: 43.0 F (6.1 C)
Relative Humidity: 66%
Pressure (altimeter): 29.59 in. Hg (1002 hPa)
Pressure tendency: 0.03 inches (0.9 hPa) lower than three hours ago
ob: PATA 171452Z 00000KT 10SM BKN140 12/06 A2959 RMK AO2 SLP021 T01220061 58009
cycle: 15

Station Type Date Time Source
PATA TAF 2019/06/17 12:34 UTC NOAA

TAF PATA 171132Z 1712/1812 02003KT P6SM SKC
FM172000 06006KT P6SM VCTS BKN050CB BKN100 BKN200
FM180400 06005KT P6SM VCSH SCT050 BKN100

Example: see airport list